Time;durP1;ratioP1;P1;durP2;ratioP2;P2;SDS_P1;SDS_P2;PMS_P1;PMS_P2;Temp;Humidity;BMP_temperature;BMP_pressure;BME280_temperature;BME280_humidity;BME280_pressure;Samples;Min_cycle;Max_cycle;Signal;HPM_P1;HPM_P2
2022/11/25 00:01:30;;;;;;;8.20;7.90;;;2.80;99.90;;;;;;5005474;28;20084;-73
2022/11/25 00:03:57;;;;;;;7.13;6.93;;;2.70;99.90;;;;;;4987997;28;20030;-73
2022/11/25 00:06:25;;;;;;;8.07;7.78;;;2.70;99.90;;;;;;4999371;28;20029;-74
2022/11/25 00:08:55;;;;;;;7.57;7.30;;;2.70;99.90;;;;;;4998991;28;20386;-73
2022/11/25 00:11:20;;;;;;;7.57;7.30;;;2.80;99.90;;;;;;4986546;28;20027;-74
2022/11/25 00:13:47;;;;;;;6.95;6.75;;;2.80;99.90;;;;;;5005374;28;20499;-74
2022/11/25 00:16:15;;;;;;;6.15;5.95;;;2.60;99.90;;;;;;5000473;28;20033;-74
2022/11/25 00:18:46;;;;;;;7.00;6.80;;;2.60;99.90;;;;;;5009715;28;20026;-74
2022/11/25 00:21:14;;;;;;;7.50;7.22;;;2.60;99.90;;;;;;4992410;28;20540;-72
2022/11/25 00:23:40;;;;;;;6.47;6.28;;;2.60;99.90;;;;;;4995139;28;20135;-73
2022/11/25 00:26:14;;;;;;;6.60;6.40;;;2.40;99.90;;;;;;5011860;28;20773;-73
2022/11/25 00:28:41;;;;;;;6.45;6.25;;;2.30;99.90;;;;;;4994105;28;20032;-73
2022/11/25 00:31:09;;;;;;;7.55;7.25;;;2.30;99.90;;;;;;4996521;28;20031;-73
2022/11/25 00:33:35;;;;;;;6.00;5.80;;;2.30;99.90;;;;;;4994229;28;20032;-74
2022/11/25 00:36:05;;;;;;;7.05;6.85;;;2.40;99.90;;;;;;4984485;28;20049;-73
2022/11/25 00:38:31;;;;;;;7.90;7.60;;;2.40;99.90;;;;;;5015536;28;20028;-73
2022/11/25 00:46:26;;;;;;;6.90;6.70;;;2.60;99.90;;;;;;5007977;28;20590;-74
2022/11/25 00:48:52;;;;;;;7.35;7.10;;;2.50;99.90;;;;;;5008872;28;20061;-73
2022/11/25 00:51:17;;;;;;;6.88;6.68;;;2.40;99.90;;;;;;5003507;28;20064;-74
2022/11/25 00:53:43;;;;;;;7.55;7.25;;;2.30;99.90;;;;;;5002120;28;20032;-74
2022/11/25 00:56:15;;;;;;;6.53;6.32;;;2.20;99.90;;;;;;5007946;28;20026;-74
2022/11/25 00:58:42;;;;;;;6.43;6.22;;;2.20;99.90;;;;;;5008812;28;20106;-74
2022/11/25 01:01:08;;;;;;;9.15;8.85;;;2.30;99.90;;;;;;5004084;28;20484;-74
2022/11/25 01:03:35;;;;;;;8.35;8.05;;;2.30;99.90;;;;;;5000316;28;20041;-74
2022/11/25 01:06:06;;;;;;;7.72;7.43;;;2.20;99.90;;;;;;5004116;28;20030;-74
2022/11/25 01:08:33;;;;;;;7.15;6.95;;;2.30;99.90;;;;;;5015043;28;20029;-74
2022/11/25 01:11:00;;;;;;;6.25;6.05;;;2.30;99.90;;;;;;5006045;28;20026;-74
2022/11/25 01:13:25;;;;;;;6.20;6.00;;;2.30;99.90;;;;;;5008535;28;20506;-74
2022/11/25 01:15:51;;;;;;;6.55;6.35;;;2.20;99.90;;;;;;4987101;28;20117;-74
2022/11/25 01:18:17;;;;;;;6.32;6.13;;;2.20;99.90;;;;;;4984295;28;20503;-74
2022/11/25 01:20:42;;;;;;;8.00;7.70;;;2.20;99.90;;;;;;5005384;28;20018;-74
2022/11/25 01:23:08;;;;;;;6.97;6.78;;;2.10;99.90;;;;;;4993868;28;20057;-74
2022/11/25 01:25:37;;;;;;;6.65;6.45;;;2.10;99.90;;;;;;5014911;28;20030;-74
2022/11/25 01:28:03;;;;;;;6.15;5.95;;;2.20;99.90;;;;;;5001643;28;20026;-74
2022/11/25 01:30:29;;;;;;;7.13;6.93;;;2.20;99.90;;;;;;5004785;28;20027;-74
2022/11/25 01:32:54;;;;;;;7.05;6.85;;;2.20;99.90;;;;;;5008235;28;20133;-74
2022/11/25 01:35:20;;;;;;;7.25;7.05;;;2.30;99.90;;;;;;5004715;28;20081;-75
2022/11/25 01:37:46;;;;;;;6.85;6.65;;;2.30;99.90;;;;;;5001327;28;20110;-74
2022/11/25 01:40:12;;;;;;;8.88;8.57;;;2.30;99.90;;;;;;5004689;28;20084;-74
2022/11/25 01:42:48;;;;;;;7.57;7.28;;;2.30;99.90;;;;;;5008053;28;20489;-74
2022/11/25 01:45:23;;;;;;;8.10;7.80;;;2.20;99.90;;;;;;5006141;28;20075;-74
2022/11/25 01:47:57;;;;;;;6.70;6.50;;;2.10;99.90;;;;;;5014328;28;20388;-74
2022/11/25 01:50:26;;;;;;;7.70;7.40;;;2.10;99.90;;;;;;4983655;28;20034;-74
2022/11/25 01:52:55;;;;;;;7.75;7.45;;;2.20;99.90;;;;;;5007264;28;20108;-74
2022/11/25 01:55:26;;;;;;;7.53;7.25;;;2.30;99.90;;;;;;4990354;28;20387;-74
2022/11/25 01:58:12;;;;;;;7.70;7.40;;;2.30;99.90;;;;;;4985081;28;20036;-74
2022/11/25 02:00:38;;;;;;;7.90;7.60;;;2.20;99.90;;;;;;5001132;28;20041;-74
2022/11/25 02:03:04;;;;;;;9.60;8.98;;;2.30;99.90;;;;;;4986065;28;20473;-74
2022/11/25 02:05:47;;;;;;;7.93;7.65;;;2.30;99.90;;;;;;5007637;28;20041;-73
2022/11/25 02:08:14;;;;;;;6.85;6.65;;;2.20;99.90;;;;;;4976988;28;20034;-74
2022/11/25 02:10:42;;;;;;;6.40;6.20;;;2.10;99.90;;;;;;5007740;28;20058;-73
2022/11/25 02:13:10;;;;;;;6.53;6.32;;;2.10;99.90;;;;;;5007176;28;20046;-74
2022/11/25 02:15:35;;;;;;;6.35;6.15;;;2.10;99.90;;;;;;5007427;28;20037;-74
2022/11/25 02:18:01;;;;;;;6.70;6.50;;;2.20;99.90;;;;;;5007200;28;20394;-73
2022/11/25 02:20:27;;;;;;;6.53;6.32;;;2.20;99.90;;;;;;5000614;28;20022;-73
2022/11/25 02:23:05;;;;;;;6.22;6.03;;;2.20;99.90;;;;;;5000934;28;20041;-74
2022/11/25 02:25:36;;;;;;;6.32;6.13;;;2.00;99.90;;;;;;4994227;28;20027;-74
2022/11/25 02:28:07;;;;;;;6.53;6.32;;;1.90;99.90;;;;;;5007157;28;20030;-74
2022/11/25 02:30:33;;;;;;;6.60;6.40;;;1.90;99.90;;;;;;4987190;28;20084;-74
2022/11/25 02:32:59;;;;;;;6.15;5.95;;;1.90;99.90;;;;;;5000463;28;20022;-74
2022/11/25 02:35:27;;;;;;;5.80;5.60;;;1.80;99.90;;;;;;4985481;28;20455;-73
2022/11/25 02:37:57;;;;;;;7.03;6.82;;;1.70;99.90;;;;;;4989227;28;20143;-74
2022/11/25 02:40:23;;;;;;;5.95;5.75;;;1.60;99.90;;;;;;5005361;28;20068;-74
2022/11/25 02:42:50;;;;;;;5.60;5.40;;;1.60;99.90;;;;;;5000235;28;20018;-75
2022/11/25 02:45:19;;;;;;;6.40;6.20;;;1.60;99.90;;;;;;4984408;28;20029;-74
2022/11/25 02:47:45;;;;;;;6.30;6.10;;;1.60;99.90;;;;;;4989114;28;20037;-74
2022/11/25 02:50:12;;;;;;;5.97;5.78;;;1.60;99.90;;;;;;4988149;28;20034;-74
2022/11/25 02:52:38;;;;;;;5.50;5.30;;;1.60;99.90;;;;;;4982535;28;20029;-74
2022/11/25 02:55:04;;;;;;;5.40;5.20;;;1.60;99.90;;;;;;5000875;28;20105;-74
2022/11/25 02:57:29;;;;;;;5.68;5.47;;;1.50;99.90;;;;;;5005981;28;20081;-74
2022/11/25 02:59:55;;;;;;;5.93;5.72;;;1.60;99.90;;;;;;5005523;28;20033;-74
2022/11/25 03:02:20;;;;;;;7.03;6.82;;;1.60;99.90;;;;;;4982459;28;20026;-74
2022/11/25 03:04:46;;;;;;;5.50;5.30;;;1.50;99.90;;;;;;5001035;28;20026;-74
2022/11/25 03:07:12;;;;;;;6.57;6.38;;;1.40;99.90;;;;;;5006368;28;20481;-74
2022/11/25 03:09:37;;;;;;;7.38;7.13;;;1.30;99.90;;;;;;4976003;28;20031;-74
2022/11/25 03:12:18;;;;;;;7.50;7.22;;;1.40;99.90;;;;;;4988887;28;20022;-74
2022/11/25 03:14:43;;;;;;;6.13;5.93;;;1.40;99.90;;;;;;4988801;28;20034;-74
2022/11/25 03:17:09;;;;;;;5.65;5.45;;;1.40;99.90;;;;;;4999985;28;20030;-74
2022/11/25 03:19:34;;;;;;;6.65;6.45;;;1.40;99.90;;;;;;4982170;28;20029;-74
2022/11/25 03:22:00;;;;;;;6.35;6.15;;;1.20;99.90;;;;;;5012720;28;20030;-75
2022/11/25 03:24:25;;;;;;;6.55;6.35;;;1.20;99.90;;;;;;5012650;28;20022;-74
2022/11/25 03:26:51;;;;;;;5.63;5.43;;;1.20;99.90;;;;;;4994843;28;20037;-75
2022/11/25 03:29:16;;;;;;;6.38;6.18;;;1.20;99.90;;;;;;4999160;28;20500;-74
2022/11/25 03:31:42;;;;;;;6.22;6.03;;;1.20;99.90;;;;;;4999962;28;20056;-73
2022/11/25 03:34:07;;;;;;;5.30;5.10;;;1.30;99.90;;;;;;5012552;28;20485;-74
2022/11/25 03:36:33;;;;;;;6.63;6.43;;;1.20;99.90;;;;;;4999730;28;20026;-72
2022/11/25 03:38:58;;;;;;;5.43;5.22;;;1.40;99.90;;;;;;5009546;28;20030;-72
2022/11/25 03:41:24;;;;;;;5.35;5.15;;;1.40;99.90;;;;;;5020677;28;20027;-73
2022/11/25 03:43:49;;;;;;;5.13;4.93;;;1.30;99.90;;;;;;5014648;28;20061;-73
2022/11/25 03:46:15;;;;;;;6.45;6.25;;;1.40;99.90;;;;;;5021341;28;20025;-73
2022/11/25 03:48:40;;;;;;;5.60;5.40;;;1.40;99.90;;;;;;5021403;28;20030;-72
2022/11/25 03:51:06;;;;;;;5.65;5.45;;;1.40;99.90;;;;;;4984086;28;20030;-72
2022/11/25 03:53:31;;;;;;;5.57;5.38;;;1.40;99.90;;;;;;5000669;28;20030;-73
2022/11/25 03:55:57;;;;;;;6.40;6.20;;;1.40;99.90;;;;;;5006823;28;20495;-72
2022/11/25 03:58:22;;;;;;;5.25;5.05;;;1.40;99.90;;;;;;5019516;28;20037;-73
2022/11/25 04:00:48;;;;;;;5.45;5.25;;;1.20;99.90;;;;;;5006645;28;20524;-73
2022/11/25 04:03:13;;;;;;;6.13;5.93;;;1.30;99.90;;;;;;5005555;28;20040;-73
2022/11/25 04:05:40;;;;;;;5.28;5.07;;;1.30;99.90;;;;;;5012638;28;20026;-73
2022/11/25 04:08:05;;;;;;;4.93;4.72;;;1.10;99.90;;;;;;5012568;28;20026;-73
2022/11/25 04:10:31;;;;;;;4.82;4.65;;;1.10;99.90;;;;;;5012081;28;20045;-73
2022/11/25 04:12:56;;;;;;;4.93;4.72;;;1.10;99.90;;;;;;5012791;28;20022;-73
2022/11/25 04:15:22;;;;;;;5.68;5.47;;;1.10;99.90;;;;;;4999594;28;20034;-74
2022/11/25 04:17:47;;;;;;;6.25;6.05;;;1.10;99.90;;;;;;4994569;28;20030;-73
2022/11/25 04:20:14;;;;;;;5.90;5.70;;;1.20;99.90;;;;;;4993154;28;20105;-73
2022/11/25 04:22:40;;;;;;;5.55;5.35;;;1.20;99.90;;;;;;4992405;28;20022;-73
2022/11/25 04:25:08;;;;;;;5.07;4.88;;;1.20;99.90;;;;;;4993366;28;20033;-72
2022/11/25 04:27:33;;;;;;;5.00;4.80;;;1.20;99.90;;;;;;4994269;28;20526;-72
2022/11/25 04:29:59;;;;;;;5.72;5.53;;;1.30;99.90;;;;;;5006263;28;20022;-72
2022/11/25 04:32:25;;;;;;;6.78;6.57;;;1.30;99.90;;;;;;4992332;28;20105;-72
2022/11/25 04:34:50;;;;;;;5.80;5.60;;;1.20;99.90;;;;;;5005106;28;20046;-72
2022/11/25 04:37:16;;;;;;;5.05;4.85;;;1.20;99.90;;;;;;4986868;28;20084;-72
2022/11/25 04:39:41;;;;;;;5.43;5.22;;;1.20;99.90;;;;;;4988665;28;20385;-72
2022/11/25 04:44:51;;;;;;;4.78;4.60;;;1.40;99.90;;;;;;5011919;28;20037;-72
2022/11/25 04:47:17;;;;;;;5.30;5.10;;;1.50;99.90;;;;;;4993827;28;20034;-72
2022/11/25 04:49:42;;;;;;;5.60;5.40;;;1.50;99.90;;;;;;5011691;28;20100;-72
2022/11/25 04:52:08;;;;;;;5.43;5.22;;;1.50;99.90;;;;;;4998298;28;20048;-72
2022/11/25 04:54:33;;;;;;;6.10;5.90;;;1.50;99.90;;;;;;5011686;28;20506;-72
2022/11/25 04:56:59;;;;;;;6.50;6.30;;;1.50;99.90;;;;;;4979462;28;20026;-72
2022/11/25 04:59:39;;;;;;;6.43;6.22;;;1.50;99.90;;;;;;4992154;28;20019;-72
2022/11/25 05:02:26;;;;;;;5.63;5.43;;;1.40;99.90;;;;;;5008132;28;20021;-72
2022/11/25 05:04:54;;;;;;;5.22;5.03;;;1.50;99.90;;;;;;5011508;28;20025;-71
2022/11/25 05:07:20;;;;;;;5.13;4.93;;;1.50;99.90;;;;;;4998476;28;20393;-72
2022/11/25 05:09:46;;;;;;;5.68;5.47;;;1.40;99.90;;;;;;4981564;28;20030;-72
2022/11/25 05:12:16;;;;;;;5.88;5.68;;;1.40;99.90;;;;;;5010716;28;20030;-72
2022/11/25 05:14:42;;;;;;;6.75;6.55;;;1.40;99.90;;;;;;5011340;28;20029;-73
2022/11/25 05:17:13;;;;;;;5.97;5.78;;;1.40;99.90;;;;;;4980610;28;20030;-72
2022/11/25 05:19:39;;;;;;;6.43;6.22;;;1.30;99.90;;;;;;5011456;28;20022;-72
2022/11/25 05:22:05;;;;;;;6.38;6.18;;;1.40;99.90;;;;;;5014751;28;20133;-73
2022/11/25 05:24:30;;;;;;;6.00;5.80;;;1.40;99.90;;;;;;4997544;28;20033;-73
2022/11/25 05:26:56;;;;;;;5.72;5.53;;;1.40;99.90;;;;;;5014646;28;20030;-73
2022/11/25 05:29:21;;;;;;;5.85;5.65;;;1.30;99.90;;;;;;4997143;28;20480;-73
2022/11/25 05:31:47;;;;;;;5.95;5.75;;;1.00;99.90;;;;;;5014878;28;20034;-72
2022/11/25 05:34:13;;;;;;;4.95;4.75;;;1.00;99.90;;;;;;4997012;28;20025;-72
2022/11/25 05:36:38;;;;;;;4.65;4.53;;;1.10;99.90;;;;;;5014592;28;20116;-72
2022/11/25 05:39:04;;;;;;;5.30;5.10;;;1.00;99.90;;;;;;5014373;28;20033;-73
2022/11/25 05:41:30;;;;;;;5.28;5.07;;;1.00;99.90;;;;;;5001925;28;20030;-73
2022/11/25 05:43:56;;;;;;;5.63;5.43;;;1.00;99.90;;;;;;5001334;28;20089;-73
2022/11/25 05:46:21;;;;;;;5.53;5.32;;;0.90;99.90;;;;;;4994895;28;20036;-73
2022/11/25 05:48:47;;;;;;;5.22;5.03;;;1.00;99.90;;;;;;5007727;28;20030;-73
2022/11/25 05:51:12;;;;;;;5.93;5.72;;;1.00;99.90;;;;;;4996836;28;20030;-73
2022/11/25 05:53:38;;;;;;;6.15;5.95;;;1.10;99.90;;;;;;5014284;28;20022;-73
2022/11/25 05:56:05;;;;;;;5.82;5.63;;;1.20;99.90;;;;;;5000920;28;20085;-73
2022/11/25 05:58:32;;;;;;;5.88;5.68;;;1.30;99.90;;;;;;5014100;28;20026;-73
2022/11/25 06:00:57;;;;;;;5.82;5.63;;;1.30;99.90;;;;;;5014248;28;20365;-73
2022/11/25 06:03:28;;;;;;;5.40;5.20;;;1.40;99.90;;;;;;4996563;28;20079;-73
2022/11/25 06:05:57;;;;;;;5.65;5.45;;;1.40;99.90;;;;;;5001460;28;20100;-73
2022/11/25 06:08:24;;;;;;;7.60;7.30;;;1.30;99.90;;;;;;5013630;28;20167;-73
2022/11/25 06:10:50;;;;;;;5.35;5.15;;;1.30;99.90;;;;;;5006533;28;20088;-73
2022/11/25 06:13:16;;;;;;;5.97;5.78;;;1.30;99.90;;;;;;4994576;28;20433;-73
2022/11/25 06:15:43;;;;;;;5.35;5.15;;;1.20;99.90;;;;;;5001794;28;20131;-73
2022/11/25 06:18:10;;;;;;;5.70;5.50;;;1.20;99.90;;;;;;4996190;28;20022;-72
2022/11/25 06:20:36;;;;;;;9.68;8.68;;;1.20;99.90;;;;;;4996366;28;20022;-73
2022/11/25 06:23:02;;;;;;;6.82;6.63;;;1.10;99.90;;;;;;5000592;28;20037;-72
2022/11/25 06:25:29;;;;;;;8.80;8.30;;;1.00;99.90;;;;;;5013720;28;20108;-73
2022/11/25 06:27:55;;;;;;;5.25;5.05;;;0.90;99.90;;;;;;5011395;28;20028;-72
2022/11/25 06:30:21;;;;;;;5.57;5.38;;;0.80;99.90;;;;;;5003013;28;20427;-73
2022/11/25 06:32:46;;;;;;;5.50;5.30;;;0.80;99.90;;;;;;5012862;28;20080;-72
2022/11/25 06:35:12;;;;;;;7.18;6.97;;;0.80;99.90;;;;;;5013443;28;20508;-73
2022/11/25 06:37:38;;;;;;;6.07;5.88;;;0.80;99.90;;;;;;4993324;28;20451;-72
2022/11/25 06:40:04;;;;;;;5.10;4.90;;;0.90;99.90;;;;;;4976531;28;20092;-72
2022/11/25 06:42:30;;;;;;;5.57;5.38;;;0.80;99.90;;;;;;5009257;28;20029;-72
2022/11/25 06:44:56;;;;;;;5.82;5.63;;;0.80;99.90;;;;;;5004177;28;20022;-74
2022/11/25 06:47:21;;;;;;;6.18;5.97;;;0.80;99.90;;;;;;4991798;28;20073;-74
2022/11/25 06:49:47;;;;;;;5.75;5.55;;;0.80;99.90;;;;;;5013310;28;20590;-73
2022/11/25 06:52:13;;;;;;;5.88;5.68;;;0.90;99.90;;;;;;4995599;28;20026;-74
2022/11/25 06:54:40;;;;;;;5.10;4.90;;;1.00;99.90;;;;;;5003555;28;20041;-73
2022/11/25 06:57:07;;;;;;;5.07;4.88;;;1.00;99.90;;;;;;4993006;28;20033;-73
2022/11/25 06:59:32;;;;;;;5.40;5.20;;;1.00;99.90;;;;;;4993439;28;20033;-72
2022/11/25 07:01:58;;;;;;;5.43;5.22;;;1.00;99.90;;;;;;5009670;28;20018;-72
2022/11/25 07:04:23;;;;;;;4.55;4.45;;;0.90;99.90;;;;;;5013000;28;20040;-74
2022/11/25 07:06:50;;;;;;;4.63;4.50;;;0.90;99.90;;;;;;4994975;28;20121;-73
2022/11/25 07:09:15;;;;;;;4.25;4.15;;;0.90;99.90;;;;;;5012922;28;20384;-73
2022/11/25 07:11:41;;;;;;;5.18;4.97;;;0.90;99.90;;;;;;5012804;28;20041;-74
2022/11/25 07:14:10;;;;;;;12.88;10.70;;;1.00;99.90;;;;;;5012904;28;20029;-74
2022/11/25 07:16:38;;;;;;;4.30;4.20;;;1.00;99.90;;;;;;5012691;28;20096;-73
2022/11/25 07:19:04;;;;;;;5.35;5.15;;;1.10;99.90;;;;;;4994877;28;20030;-74
2022/11/25 07:21:31;;;;;;;5.32;5.13;;;1.10;99.90;;;;;;4995087;28;20030;-73
2022/11/25 07:23:59;;;;;;;5.63;5.43;;;1.00;99.90;;;;;;5012578;28;20101;-72
2022/11/25 07:26:28;;;;;;;5.60;5.40;;;0.80;99.90;;;;;;5012470;28;20022;-73
2022/11/25 07:28:57;;;;;;;5.93;5.72;;;0.60;99.90;;;;;;5012427;28;20057;-74
2022/11/25 07:31:26;;;;;;;6.45;6.25;;;0.40;99.90;;;;;;4999044;28;20076;-74
2022/11/25 07:34:12;;;;;;;5.82;5.63;;;0.60;99.90;;;;;;4994355;28;20033;-74
2022/11/25 07:36:39;;;;;;;5.70;5.50;;;0.70;99.90;;;;;;5007285;28;20049;-74
2022/11/25 07:39:12;;;;;;;7.13;6.82;;;0.50;99.90;;;;;;5009247;28;20052;-75
2022/11/25 07:41:39;;;;;;;6.63;6.43;;;0.50;99.90;;;;;;5004233;28;20134;-73
2022/11/25 07:44:06;;;;;;;6.97;6.78;;;0.60;99.90;;;;;;4992469;28;20049;-74
2022/11/25 07:46:37;;;;;;;6.35;6.15;;;0.70;99.90;;;;;;4992423;28;20030;-74
2022/11/25 07:49:05;;;;;;;6.63;6.43;;;0.80;99.90;;;;;;5018377;28;20029;-74
2022/11/25 07:51:46;;;;;;;6.70;6.50;;;0.70;99.90;;;;;;4992524;28;20038;-74
2022/11/25 07:54:12;;;;;;;6.43;6.22;;;0.80;99.90;;;;;;4996946;28;20030;-74
2022/11/25 07:56:40;;;;;;;6.53;6.32;;;0.90;99.90;;;;;;4994166;28;20060;-74
2022/11/25 07:59:08;;;;;;;9.07;8.68;;;1.00;99.90;;;;;;5011403;28;20029;-72
2022/11/25 08:01:34;;;;;;;6.95;6.65;;;1.10;99.90;;;;;;4999869;28;20030;-74
2022/11/25 08:04:00;;;;;;;5.45;5.25;;;1.30;99.90;;;;;;5005487;28;20034;-74
2022/11/25 08:06:27;;;;;;;6.13;5.93;;;1.50;99.90;;;;;;4992118;28;20113;-74
2022/11/25 08:08:54;;;;;;;7.70;7.35;;;1.40;99.90;;;;;;4974222;28;20117;-75
2022/11/25 08:11:30;;;;;;;7.32;7.03;;;1.50;99.90;;;;;;4974644;28;20030;-74
2022/11/25 08:13:56;;;;;;;;;;;1.50;99.90;;;;;;5012342;28;20032;-74
2022/11/25 08:16:26;;;;;;;6.05;5.85;;;1.50;99.90;;;;;;5011624;28;19913;-74
2022/11/25 08:18:53;;;;;;;5.80;5.60;;;1.50;99.90;;;;;;5011139;28;20053;-75
2022/11/25 08:21:18;;;;;;;6.40;6.20;;;1.40;99.90;;;;;;5011757;28;20101;-74
2022/11/25 08:23:47;;;;;;;5.35;5.15;;;1.40;99.90;;;;;;5011636;28;20164;-73
2022/11/25 08:26:16;;;;;;;6.25;6.05;;;1.40;99.90;;;;;;5011475;28;20388;-74
2022/11/25 08:28:42;;;;;;;5.90;5.70;;;1.40;99.90;;;;;;4993390;28;20113;-75
2022/11/25 08:31:17;;;;;;;6.68;6.47;;;1.30;99.90;;;;;;5009406;28;20101;-75
2022/11/25 08:33:42;;;;;;;5.93;5.73;;;1.20;99.90;;;;;;4994099;28;20038;-74
2022/11/25 08:36:09;;;;;;;7.10;6.90;;;1.20;99.90;;;;;;5011388;28;20359;-74
2022/11/25 08:38:35;;;;;;;6.68;6.47;;;1.30;99.90;;;;;;5010721;28;20022;-74
2022/11/25 08:41:01;;;;;;;6.60;6.40;;;1.50;99.90;;;;;;5011599;28;20033;-74
2022/11/25 08:43:26;;;;;;;7.53;7.22;;;1.50;99.90;;;;;;5011541;28;20056;-74
2022/11/25 08:45:52;;;;;;;7.53;7.22;;;1.60;99.90;;;;;;5011324;28;20022;-74
2022/11/25 08:48:20;;;;;;;7.97;7.68;;;1.80;99.90;;;;;;4993363;28;20076;-75
2022/11/25 08:50:49;;;;;;;6.00;5.80;;;1.90;99.90;;;;;;5008504;28;20030;-74
2022/11/25 08:53:15;;;;;;;7.25;7.03;;;2.10;99.90;;;;;;5001800;28;20030;-75
2022/11/25 08:55:41;;;;;;;6.47;6.28;;;2.10;99.90;;;;;;5012507;28;20032;-75
2022/11/25 08:58:09;;;;;;;6.97;6.78;;;2.30;99.90;;;;;;5014645;28;20029;-75
2022/11/25 09:00:36;;;;;;;7.40;7.15;;;2.40;99.90;;;;;;5015159;28;20026;-75
2022/11/25 09:03:02;;;;;;;6.75;6.55;;;2.50;99.90;;;;;;5015278;28;20459;-75
2022/11/25 09:05:28;;;;;;;7.03;6.82;;;2.70;99.90;;;;;;5014953;28;20053;-73
2022/11/25 09:07:54;;;;;;;6.60;6.40;;;2.80;99.90;;;;;;5014509;28;20017;-72
2022/11/25 09:10:19;;;;;;;8.73;8.43;;;3.00;99.90;;;;;;5015003;28;20387;-74
2022/11/25 09:12:45;;;;;;;8.73;8.43;;;3.10;99.90;;;;;;5014937;28;20038;-75
2022/11/25 09:15:11;;;;;;;7.70;7.43;;;3.30;99.90;;;;;;5014859;28;20084;-74
2022/11/25 09:17:36;;;;;;;7.30;7.10;;;3.40;99.90;;;;;;5003863;28;20030;-74
2022/11/25 09:20:05;;;;;;;7.65;7.35;;;3.60;99.90;;;;;;5003583;28;20046;-75
2022/11/25 09:22:31;;;;;;;7.82;7.53;;;3.70;99.90;;;;;;5005110;28;20033;-74
2022/11/25 09:24:57;;;;;;;8.60;8.30;;;3.90;99.90;;;;;;5025009;28;20022;-74
2022/11/25 09:27:23;;;;;;;9.02;8.73;;;4.00;99.90;;;;;;5014094;28;20825;-74
2022/11/25 09:29:48;;;;;;;7.95;7.65;;;4.10;99.90;;;;;;4997052;28;20033;-74
2022/11/25 09:32:14;;;;;;;9.70;9.40;;;4.40;99.90;;;;;;5016146;28;20049;-73
2022/11/25 09:34:39;;;;;;;9.60;9.30;;;4.50;99.90;;;;;;5017969;28;20389;-73
2022/11/25 09:37:05;;;;;;;10.48;10.07;;;4.40;99.90;;;;;;5013813;28;20030;-74
2022/11/25 09:39:33;;;;;;;10.35;9.95;;;4.50;99.90;;;;;;5010390;28;20038;-73
2022/11/25 09:49:21;;;;;;;8.50;8.20;;;5.10;99.90;;;;;;5006848;28;20129;-75
2022/11/25 09:52:01;;;;;;;9.43;9.13;;;5.20;99.90;;;;;;4996676;28;20049;-73
2022/11/25 09:54:41;;;;;;;9.18;8.88;;;5.30;99.90;;;;;;5014198;28;20060;-74
2022/11/25 09:57:26;;;;;;;9.35;9.05;;;5.30;99.90;;;;;;5013299;28;20084;-74
2022/11/25 10:00:11;;;;;;;10.15;9.75;;;5.30;99.90;;;;;;5013991;28;20062;-74
2022/11/25 10:02:45;;;;;;;10.63;10.23;;;5.40;99.90;;;;;;5008043;28;20041;-73
2022/11/25 10:05:35;;;;;;;9.90;9.60;;;5.40;99.90;;;;;;5008756;28;20022;-77
2022/11/25 10:08:30;;;;;;;11.15;10.75;;;5.20;99.90;;;;;;4983625;28;20027;-76
2022/11/25 10:11:17;;;;;;;11.80;11.40;;;5.10;99.90;;;;;;5003399;28;20022;-74
2022/11/25 10:14:09;;;;;;;12.50;12.07;;;5.10;99.90;;;;;;4996074;28;20037;-73
2022/11/25 10:16:51;;;;;;;12.35;11.95;;;5.20;99.90;;;;;;4999801;28;20038;-74
2022/11/25 10:19:35;;;;;;;11.60;11.20;;;5.10;99.90;;;;;;5013862;28;20033;-75
2022/11/25 10:22:31;;;;;;;13.88;13.38;;;5.10;99.90;;;;;;5017263;28;20018;-74
2022/11/25 10:25:01;;;;;;;13.93;13.43;;;5.20;99.90;;;;;;5018721;28;20384;-74
2022/11/25 10:27:43;;;;;;;13.85;13.35;;;5.30;99.90;;;;;;5024094;28;20264;-75
2022/11/25 10:30:18;;;;;;;14.23;13.73;;;5.50;99.90;;;;;;5015849;28;20041;-75
2022/11/25 10:33:13;;;;;;;14.70;14.20;;;5.60;99.90;;;;;;4994110;28;20033;-76
2022/11/25 10:36:07;;;;;;;13.63;13.13;;;5.80;99.90;;;;;;4988489;28;20052;-76
2022/11/25 10:39:07;;;;;;;15.77;15.18;;;5.80;99.90;;;;;;4995140;28;20028;-76
2022/11/25 10:41:47;;;;;;;13.88;13.38;;;5.90;99.90;;;;;;4983827;28;20026;-74
2022/11/25 10:44:38;;;;;;;14.15;13.65;;;6.00;99.90;;;;;;5013189;28;20484;-74
2022/11/25 10:47:25;;;;;;;13.63;13.02;;;6.10;99.90;;;;;;5012700;28;20018;-74
2022/11/25 10:50:16;;;;;;;15.80;15.20;;;6.10;99.90;;;;;;5002240;28;20781;-76
2022/11/25 10:53:01;;;;;;;14.70;14.20;;;6.10;99.90;;;;;;4995460;28;20081;-75
2022/11/25 10:55:30;;;;;;;15.65;15.05;;;6.30;99.90;;;;;;4995422;28;20064;-74
2022/11/25 10:57:56;;;;;;;15.70;15.10;;;6.30;99.90;;;;;;4994618;28;20495;-75
2022/11/25 11:00:36;;;;;;;15.70;15.10;;;6.30;99.90;;;;;;5013046;28;20041;-75
2022/11/25 11:03:24;;;;;;;17.08;16.48;;;6.30;99.90;;;;;;5012948;28;20029;-75
2022/11/25 11:05:52;;;;;;;16.98;16.38;;;6.30;99.90;;;;;;5000325;28;20022;-75
2022/11/25 11:08:25;;;;;;;16.40;15.80;;;6.30;99.90;;;;;;5012169;28;20022;-76
2022/11/25 11:11:14;;;;;;;17.88;17.15;;;6.30;99.90;;;;;;5012853;28;20068;-77
2022/11/25 11:13:40;;;;;;;17.00;16.40;;;6.40;99.90;;;;;;5012724;28;20053;-76
2022/11/25 11:16:35;;;;;;;18.50;17.80;;;6.50;99.90;;;;;;5001776;28;20034;-75
2022/11/25 11:19:01;;;;;;;15.60;15.00;;;6.60;99.90;;;;;;4974703;28;20133;-75
2022/11/25 11:21:40;;;;;;;18.25;17.45;;;6.60;99.90;;;;;;4976227;28;20019;-75
2022/11/25 11:24:25;;;;;;;15.73;15.13;;;6.60;99.90;;;;;;5010804;28;20017;-75
2022/11/25 11:27:09;;;;;;;15.93;15.32;;;6.60;99.90;;;;;;4982158;28;20530;-77
2022/11/25 11:29:35;;;;;;;17.17;16.48;;;6.70;99.90;;;;;;4980840;28;20052;-76
2022/11/25 11:32:04;;;;;;;15.80;15.20;;;6.70;99.90;;;;;;5003611;28;20026;-76
2022/11/25 11:34:46;;;;;;;14.57;14.07;;;6.70;99.90;;;;;;4991230;28;20034;-76
2022/11/25 11:37:12;;;;;;;14.93;14.43;;;6.70;99.90;;;;;;4994494;28;20083;-76
2022/11/25 11:40:15;;;;;;;19.45;18.65;;;6.80;99.90;;;;;;4999163;28;20025;-76
2022/11/25 11:43:05;;;;;;;15.52;14.93;;;7.00;99.90;;;;;;4998902;28;20476;-76
2022/11/25 11:45:55;;;;;;;14.60;14.10;;;6.90;99.90;;;;;;5012606;28;20029;-77
2022/11/25 11:48:35;;;;;;;14.23;13.73;;;7.00;99.90;;;;;;5002222;28;20050;-76
2022/11/25 11:51:41;;;;;;;14.13;13.63;;;7.00;99.90;;;;;;5011060;28;20026;-75
2022/11/25 11:54:47;;;;;;;14.15;13.65;;;7.00;99.90;;;;;;5008439;28;20026;-76
2022/11/25 11:57:25;;;;;;;14.90;14.30;;;7.10;99.90;;;;;;4934654;29;20039;-75
2022/11/25 11:59:53;;;;;;;14.00;13.50;;;7.00;99.90;;;;;;4989336;28;20484;-76
2022/11/25 12:02:39;;;;;;;13.63;13.13;;;6.90;99.90;;;;;;5005609;28;20413;-76
2022/11/25 12:05:18;;;;;;;14.80;13.95;;;6.70;99.90;;;;;;4988204;28;20056;-76
2022/11/25 12:07:53;;;;;;;14.57;13.98;;;6.60;99.90;;;;;;4983948;28;20061;-75
2022/11/25 12:10:24;;;;;;;14.05;13.45;;;6.60;99.90;;;;;;5008420;28;20101;-76
2022/11/25 12:13:04;;;;;;;13.38;12.88;;;6.60;99.90;;;;;;5003581;28;20026;-75
2022/11/25 12:15:58;;;;;;;13.80;13.30;;;6.60;99.90;;;;;;4981347;28;20041;-75
2022/11/25 12:18:45;;;;;;;12.10;11.70;;;6.60;99.90;;;;;;4998665;28;20113;-75
2022/11/25 12:21:24;;;;;;;11.48;11.07;;;6.70;99.90;;;;;;4998910;28;20475;-75
2022/11/25 12:23:54;;;;;;;11.23;10.82;;;6.80;99.90;;;;;;5000551;28;20137;-75
2022/11/25 12:26:29;;;;;;;12.85;12.35;;;6.80;99.90;;;;;;5005603;28;20034;-73
2022/11/25 12:29:00;;;;;;;11.48;11.07;;;6.70;99.90;;;;;;5019435;28;20076;-74
2022/11/25 12:31:31;;;;;;;10.23;9.82;;;6.70;99.90;;;;;;5025233;28;20484;-74
2022/11/25 12:34:02;;;;;;;10.38;9.98;;;6.70;99.90;;;;;;5028715;28;20384;-74
2022/11/25 12:36:36;;;;;;;10.95;10.55;;;6.70;99.90;;;;;;4994648;28;20026;-73
2022/11/25 12:39:10;;;;;;;11.23;10.73;;;6.70;99.90;;;;;;5027201;28;20025;-73
2022/11/25 12:41:45;;;;;;;10.40;10.00;;;6.60;99.90;;;;;;5011809;28;20026;-73
2022/11/25 12:44:29;;;;;;;10.40;10.00;;;6.60;99.90;;;;;;5011474;28;20030;-74
2022/11/25 12:46:56;;;;;;;9.80;9.50;;;6.70;99.90;;;;;;4981268;28;20030;-75
2022/11/25 12:49:39;;;;;;;10.23;9.82;;;6.70;99.90;;;;;;5009094;28;20030;-74
2022/11/25 12:52:22;;;;;;;10.68;10.27;;;6.70;99.90;;;;;;4999806;28;20027;-74
2022/11/25 12:54:54;;;;;;;9.25;8.95;;;6.80;99.90;;;;;;4997066;28;20081;-74
2022/11/25 12:57:39;;;;;;;10.00;9.63;;;6.70;99.90;;;;;;5001565;28;20037;-74
2022/11/25 13:00:08;;;;;;;10.13;9.73;;;6.60;99.90;;;;;;4984010;28;20034;-75
2022/11/25 13:03:01;;;;;;;9.00;8.70;;;6.50;99.90;;;;;;5021317;28;20020;-75
2022/11/25 13:05:45;;;;;;;10.18;9.73;;;6.50;99.90;;;;;;5014589;28;20026;-74
2022/11/25 13:08:46;;;;;;;10.02;9.52;;;6.40;99.90;;;;;;4993714;28;20031;-75
2022/11/25 13:11:33;;;;;;;8.10;7.80;;;6.40;99.90;;;;;;5007545;28;20030;-72
2022/11/25 13:14:20;;;;;;;8.93;8.63;;;6.50;99.90;;;;;;5007927;28;20033;-74
2022/11/25 13:16:47;;;;;;;8.40;8.00;;;6.40;99.90;;;;;;4982543;28;20084;-74
2022/11/25 13:19:16;;;;;;;9.07;8.77;;;6.40;99.90;;;;;;4981025;28;20036;-74
2022/11/25 13:22:05;;;;;;;8.88;8.57;;;6.40;99.90;;;;;;4978358;28;20081;-74
2022/11/25 13:24:38;;;;;;;10.35;9.73;;;6.40;99.90;;;;;;5012497;28;20500;-74
2022/11/25 13:27:04;;;;;;;9.55;9.25;;;6.40;99.90;;;;;;5024903;28;20033;-78